sensor_id;sensor_type;location;lat;lon;timestamp;P1;durP1;ratioP1;P2;durP2;ratioP2
25917;SDS011;13899;51.174;4.456;2024-01-30T00:01:52;20.63;;;19.43;;
25917;SDS011;13899;51.174;4.456;2024-01-30T00:04:17;13.13;;;12.13;;
25917;SDS011;13899;51.174;4.456;2024-01-30T00:06:43;8.38;;;6.80;;
25917;SDS011;13899;51.174;4.456;2024-01-30T00:09:09;8.43;;;7.50;;
25917;SDS011;13899;51.174;4.456;2024-01-30T00:11:36;8.07;;;7.28;;
25917;SDS011;13899;51.174;4.456;2024-01-30T00:14:02;8.43;;;7.57;;
25917;SDS011;13899;51.174;4.456;2024-01-30T00:16:28;9.40;;;7.70;;
25917;SDS011;13899;51.174;4.456;2024-01-30T00:18:54;8.17;;;7.33;;
25917;SDS011;13899;51.174;4.456;2024-01-30T00:21:20;9.60;;;7.38;;
25917;SDS011;13899;51.174;4.456;2024-01-30T00:23:46;8.93;;;7.30;;
25917;SDS011;13899;51.174;4.456;2024-01-30T00:26:12;8.53;;;7.63;;
25917;SDS011;13899;51.174;4.456;2024-01-30T00:28:39;9.75;;;8.60;;
25917;SDS011;13899;51.174;4.456;2024-01-30T00:31:05;24.70;;;23.30;;
25917;SDS011;13899;51.174;4.456;2024-01-30T00:33:31;9.15;;;7.25;;
25917;SDS011;13899;51.174;4.456;2024-01-30T00:35:57;8.70;;;7.50;;
25917;SDS011;13899;51.174;4.456;2024-01-30T00:38:22;8.20;;;7.40;;
25917;SDS011;13899;51.174;4.456;2024-01-30T00:40:48;9.57;;;7.17;;
25917;SDS011;13899;51.174;4.456;2024-01-30T00:43:14;7.65;;;6.32;;
25917;SDS011;13899;51.174;4.456;2024-01-30T00:45:40;7.85;;;7.15;;
25917;SDS011;13899;51.174;4.456;2024-01-30T00:48:06;7.67;;;6.87;;
25917;SDS011;13899;51.174;4.456;2024-01-30T00:50:32;7.67;;;6.77;;
25917;SDS011;13899;51.174;4.456;2024-01-30T00:52:57;8.13;;;6.80;;
25917;SDS011;13899;51.174;4.456;2024-01-30T00:55:23;7.27;;;6.57;;
25917;SDS011;13899;51.174;4.456;2024-01-30T00:57:48;8.63;;;7.37;;
25917;SDS011;13899;51.174;4.456;2024-01-30T01:00:14;8.60;;;7.30;;
25917;SDS011;13899;51.174;4.456;2024-01-30T01:02:42;8.73;;;7.35;;
25917;SDS011;13899;51.174;4.456;2024-01-30T01:05:08;8.53;;;7.60;;
25917;SDS011;13899;51.174;4.456;2024-01-30T01:07:33;10.33;;;9.33;;
25917;SDS011;13899;51.174;4.456;2024-01-30T01:09:59;21.58;;;15.77;;
25917;SDS011;13899;51.174;4.456;2024-01-30T01:12:25;14.53;;;10.43;;
25917;SDS011;13899;51.174;4.456;2024-01-30T01:14:51;10.10;;;7.78;;
25917;SDS011;13899;51.174;4.456;2024-01-30T01:17:16;8.67;;;7.80;;
25917;SDS011;13899;51.174;4.456;2024-01-30T01:19:43;10.68;;;7.30;;
25917;SDS011;13899;51.174;4.456;2024-01-30T01:22:09;12.60;;;10.17;;
25917;SDS011;13899;51.174;4.456;2024-01-30T01:24:35;10.60;;;8.83;;
25917;SDS011;13899;51.174;4.456;2024-01-30T01:27:01;11.38;;;8.48;;
25917;SDS011;13899;51.174;4.456;2024-01-30T01:29:27;8.95;;;6.88;;
25917;SDS011;13899;51.174;4.456;2024-01-30T01:31:55;9.27;;;6.95;;
25917;SDS011;13899;51.174;4.456;2024-01-30T01:34:21;10.30;;;7.07;;
25917;SDS011;13899;51.174;4.456;2024-01-30T01:36:48;12.20;;;7.82;;
25917;SDS011;13899;51.174;4.456;2024-01-30T01:39:14;9.13;;;7.67;;
25917;SDS011;13899;51.174;4.456;2024-01-30T01:41:40;11.23;;;8.03;;
25917;SDS011;13899;51.174;4.456;2024-01-30T01:44:06;9.07;;;7.80;;
25917;SDS011;13899;51.174;4.456;2024-01-30T01:46:33;8.55;;;7.22;;
25917;SDS011;13899;51.174;4.456;2024-01-30T01:49:00;10.13;;;7.63;;
25917;SDS011;13899;51.174;4.456;2024-01-30T01:51:31;9.13;;;7.63;;
25917;SDS011;13899;51.174;4.456;2024-01-30T01:53:59;9.40;;;8.40;;
25917;SDS011;13899;51.174;4.456;2024-01-30T01:56:30;11.15;;;7.93;;
25917;SDS011;13899;51.174;4.456;2024-01-30T01:58:59;8.75;;;6.85;;
25917;SDS011;13899;51.174;4.456;2024-01-30T02:01:28;7.90;;;7.20;;
25917;SDS011;13899;51.174;4.456;2024-01-30T02:03:54;8.53;;;7.27;;
25917;SDS011;13899;51.174;4.456;2024-01-30T02:06:20;9.32;;;7.53;;
25917;SDS011;13899;51.174;4.456;2024-01-30T02:08:46;9.30;;;7.57;;
25917;SDS011;13899;51.174;4.456;2024-01-30T02:11:12;8.97;;;7.70;;
25917;SDS011;13899;51.174;4.456;2024-01-30T02:13:38;10.27;;;7.17;;
25917;SDS011;13899;51.174;4.456;2024-01-30T02:16:03;8.77;;;7.67;;
25917;SDS011;13899;51.174;4.456;2024-01-30T02:18:29;8.77;;;7.67;;
25917;SDS011;13899;51.174;4.456;2024-01-30T02:20:56;10.35;;;8.23;;
25917;SDS011;13899;51.174;4.456;2024-01-30T02:23:26;8.40;;;7.22;;
25917;SDS011;13899;51.174;4.456;2024-01-30T02:25:52;8.50;;;7.60;;
25917;SDS011;13899;51.174;4.456;2024-01-30T02:28:18;12.05;;;11.02;;
25917;SDS011;13899;51.174;4.456;2024-01-30T02:30:44;13.13;;;11.90;;
25917;SDS011;13899;51.174;4.456;2024-01-30T02:33:10;17.73;;;14.27;;
25917;SDS011;13899;51.174;4.456;2024-01-30T02:35:36;14.17;;;13.00;;
25917;SDS011;13899;51.174;4.456;2024-01-30T02:38:02;12.18;;;11.20;;
25917;SDS011;13899;51.174;4.456;2024-01-30T02:40:28;15.18;;;13.80;;
25917;SDS011;13899;51.174;4.456;2024-01-30T02:42:54;12.87;;;11.73;;
25917;SDS011;13899;51.174;4.456;2024-01-30T02:45:20;12.77;;;8.67;;
25917;SDS011;13899;51.174;4.456;2024-01-30T02:47:45;10.35;;;7.25;;
25917;SDS011;13899;51.174;4.456;2024-01-30T02:50:11;8.90;;;8.00;;
25917;SDS011;13899;51.174;4.456;2024-01-30T02:52:37;9.37;;;7.90;;
25917;SDS011;13899;51.174;4.456;2024-01-30T02:55:03;13.45;;;8.85;;
25917;SDS011;13899;51.174;4.456;2024-01-30T02:57:29;11.65;;;7.85;;
25917;SDS011;13899;51.174;4.456;2024-01-30T02:59:55;9.47;;;7.43;;
25917;SDS011;13899;51.174;4.456;2024-01-30T03:02:20;14.30;;;7.87;;
25917;SDS011;13899;51.174;4.456;2024-01-30T03:04:46;8.57;;;7.23;;
25917;SDS011;13899;51.174;4.456;2024-01-30T03:07:11;9.23;;;7.20;;
25917;SDS011;13899;51.174;4.456;2024-01-30T03:09:37;10.07;;;7.07;;
25917;SDS011;13899;51.174;4.456;2024-01-30T03:12:03;8.68;;;7.47;;
25917;SDS011;13899;51.174;4.456;2024-01-30T03:14:30;7.72;;;6.93;;
25917;SDS011;13899;51.174;4.456;2024-01-30T03:19:22;8.82;;;7.38;;
25917;SDS011;13899;51.174;4.456;2024-01-30T03:21:48;11.03;;;7.10;;
25917;SDS011;13899;51.174;4.456;2024-01-30T03:24:13;8.02;;;7.22;;
25917;SDS011;13899;51.174;4.456;2024-01-30T03:26:39;10.75;;;8.07;;
25917;SDS011;13899;51.174;4.456;2024-01-30T03:29:05;10.90;;;8.27;;
25917;SDS011;13899;51.174;4.456;2024-01-30T03:31:30;9.35;;;6.88;;
25917;SDS011;13899;51.174;4.456;2024-01-30T03:33:56;9.10;;;7.00;;
25917;SDS011;13899;51.174;4.456;2024-01-30T03:36:21;9.35;;;8.25;;
25917;SDS011;13899;51.174;4.456;2024-01-30T03:38:47;7.37;;;6.30;;
25917;SDS011;13899;51.174;4.456;2024-01-30T03:41:13;8.90;;;6.93;;
25917;SDS011;13899;51.174;4.456;2024-01-30T03:43:38;9.77;;;7.00;;
25917;SDS011;13899;51.174;4.456;2024-01-30T03:46:04;10.03;;;7.73;;
25917;SDS011;13899;51.174;4.456;2024-01-30T03:48:30;7.20;;;6.50;;
25917;SDS011;13899;51.174;4.456;2024-01-30T03:50:55;9.17;;;7.83;;
25917;SDS011;13899;51.174;4.456;2024-01-30T03:53:21;9.60;;;7.10;;
25917;SDS011;13899;51.174;4.456;2024-01-30T03:55:47;8.47;;;6.03;;
25917;SDS011;13899;51.174;4.456;2024-01-30T03:58:13;9.93;;;7.70;;
25917;SDS011;13899;51.174;4.456;2024-01-30T04:00:38;8.43;;;7.47;;
25917;SDS011;13899;51.174;4.456;2024-01-30T04:03:05;9.18;;;7.85;;
25917;SDS011;13899;51.174;4.456;2024-01-30T04:05:31;9.57;;;7.30;;
25917;SDS011;13899;51.174;4.456;2024-01-30T04:07:57;9.70;;;6.93;;
25917;SDS011;13899;51.174;4.456;2024-01-30T04:10:23;7.93;;;7.13;;
25917;SDS011;13899;51.174;4.456;2024-01-30T04:12:49;7.60;;;6.70;;
25917;SDS011;13899;51.174;4.456;2024-01-30T04:15:16;10.38;;;7.85;;
25917;SDS011;13899;51.174;4.456;2024-01-30T04:17:42;10.53;;;7.20;;
25917;SDS011;13899;51.174;4.456;2024-01-30T04:20:12;8.57;;;6.82;;
25917;SDS011;13899;51.174;4.456;2024-01-30T04:22:43;7.88;;;6.93;;
25917;SDS011;13899;51.174;4.456;2024-01-30T04:25:12;9.63;;;6.50;;
25917;SDS011;13899;51.174;4.456;2024-01-30T04:27:38;9.40;;;6.80;;
25917;SDS011;13899;51.174;4.456;2024-01-30T04:30:04;10.73;;;7.05;;
25917;SDS011;13899;51.174;4.456;2024-01-30T04:32:31;10.07;;;7.53;;
25917;SDS011;13899;51.174;4.456;2024-01-30T04:34:57;11.93;;;7.22;;
25917;SDS011;13899;51.174;4.456;2024-01-30T04:37:23;9.02;;;6.25;;
25917;SDS011;13899;51.174;4.456;2024-01-30T04:39:49;7.80;;;7.00;;
25917;SDS011;13899;51.174;4.456;2024-01-30T04:42:15;9.00;;;7.00;;
25917;SDS011;13899;51.174;4.456;2024-01-30T04:44:41;7.43;;;6.57;;
25917;SDS011;13899;51.174;4.456;2024-01-30T04:47:07;10.13;;;6.07;;
25917;SDS011;13899;51.174;4.456;2024-01-30T04:49:34;9.25;;;6.97;;
25917;SDS011;13899;51.174;4.456;2024-01-30T04:52:00;11.35;;;6.75;;
25917;SDS011;13899;51.174;4.456;2024-01-30T04:54:25;10.10;;;7.03;;
25917;SDS011;13899;51.174;4.456;2024-01-30T04:56:51;7.20;;;6.40;;
25917;SDS011;13899;51.174;4.456;2024-01-30T04:59:17;8.10;;;7.10;;
25917;SDS011;13899;51.174;4.456;2024-01-30T05:01:42;7.77;;;6.67;;
25917;SDS011;13899;51.174;4.456;2024-01-30T05:04:08;11.73;;;6.85;;
25917;SDS011;13899;51.174;4.456;2024-01-30T05:06:34;9.70;;;6.88;;
25917;SDS011;13899;51.174;4.456;2024-01-30T05:09:00;9.27;;;7.00;;
25917;SDS011;13899;51.174;4.456;2024-01-30T05:11:25;8.80;;;6.55;;
25917;SDS011;13899;51.174;4.456;2024-01-30T05:13:51;27.13;;;8.10;;
25917;SDS011;13899;51.174;4.456;2024-01-30T05:16:16;9.95;;;7.20;;
25917;SDS011;13899;51.174;4.456;2024-01-30T05:18:42;8.30;;;7.37;;
25917;SDS011;13899;51.174;4.456;2024-01-30T05:21:08;9.00;;;7.57;;
25917;SDS011;13899;51.174;4.456;2024-01-30T05:23:35;7.55;;;6.75;;
25917;SDS011;13899;51.174;4.456;2024-01-30T05:26:00;8.98;;;8.07;;
25917;SDS011;13899;51.174;4.456;2024-01-30T05:28:28;10.20;;;9.02;;
25917;SDS011;13899;51.174;4.456;2024-01-30T05:30:55;9.52;;;7.45;;
25917;SDS011;13899;51.174;4.456;2024-01-30T05:33:21;10.25;;;7.07;;
25917;SDS011;13899;51.174;4.456;2024-01-30T05:35:47;13.27;;;8.82;;
25917;SDS011;13899;51.174;4.456;2024-01-30T05:38:13;10.65;;;7.32;;
25917;SDS011;13899;51.174;4.456;2024-01-30T05:40:40;8.90;;;6.88;;
25917;SDS011;13899;51.174;4.456;2024-01-30T05:43:06;9.97;;;7.53;;
25917;SDS011;13899;51.174;4.456;2024-01-30T05:45:32;15.18;;;7.88;;
25917;SDS011;13899;51.174;4.456;2024-01-30T05:48:00;10.40;;;7.90;;
25917;SDS011;13899;51.174;4.456;2024-01-30T05:50:25;11.20;;;8.03;;
25917;SDS011;13899;51.174;4.456;2024-01-30T05:52:52;10.60;;;7.78;;
25917;SDS011;13899;51.174;4.456;2024-01-30T05:55:17;9.03;;;7.17;;
25917;SDS011;13899;51.174;4.456;2024-01-30T05:57:43;11.65;;;7.68;;
25917;SDS011;13899;51.174;4.456;2024-01-30T06:00:09;11.27;;;7.83;;
25917;SDS011;13899;51.174;4.456;2024-01-30T06:02:34;11.02;;;7.88;;
25917;SDS011;13899;51.174;4.456;2024-01-30T06:05:00;11.03;;;8.67;;
25917;SDS011;13899;51.174;4.456;2024-01-30T06:07:26;8.45;;;7.28;;
25917;SDS011;13899;51.174;4.456;2024-01-30T06:09:51;15.33;;;8.37;;
25917;SDS011;13899;51.174;4.456;2024-01-30T06:12:17;9.20;;;7.67;;
25917;SDS011;13899;51.174;4.456;2024-01-30T06:14:43;8.85;;;7.60;;
25917;SDS011;13899;51.174;4.456;2024-01-30T06:17:08;12.73;;;8.68;;
25917;SDS011;13899;51.174;4.456;2024-01-30T06:19:34;9.37;;;8.37;;
25917;SDS011;13899;51.174;4.456;2024-01-30T06:22:00;8.30;;;7.23;;
25917;SDS011;13899;51.174;4.456;2024-01-30T06:24:26;11.07;;;7.93;;
25917;SDS011;13899;51.174;4.456;2024-01-30T06:26:52;11.38;;;8.25;;
25917;SDS011;13899;51.174;4.456;2024-01-30T06:29:18;10.05;;;8.55;;
25917;SDS011;13899;51.174;4.456;2024-01-30T06:31:44;9.00;;;8.07;;
25917;SDS011;13899;51.174;4.456;2024-01-30T06:34:09;9.27;;;7.00;;
25917;SDS011;13899;51.174;4.456;2024-01-30T06:36:36;13.82;;;8.10;;
25917;SDS011;13899;51.174;4.456;2024-01-30T06:39:02;10.80;;;8.90;;
25917;SDS011;13899;51.174;4.456;2024-01-30T06:41:28;15.13;;;8.10;;
25917;SDS011;13899;51.174;4.456;2024-01-30T06:43:55;12.93;;;7.55;;
25917;SDS011;13899;51.174;4.456;2024-01-30T06:46:20;11.52;;;8.65;;
25917;SDS011;13899;51.174;4.456;2024-01-30T06:48:46;11.15;;;8.05;;
25917;SDS011;13899;51.174;4.456;2024-01-30T06:51:12;9.65;;;8.18;;
25917;SDS011;13899;51.174;4.456;2024-01-30T06:53:38;21.75;;;15.00;;
25917;SDS011;13899;51.174;4.456;2024-01-30T06:56:03;13.38;;;11.55;;
25917;SDS011;13899;51.174;4.456;2024-01-30T06:58:29;13.98;;;12.45;;
25917;SDS011;13899;51.174;4.456;2024-01-30T07:00:55;20.08;;;18.67;;
25917;SDS011;13899;51.174;4.456;2024-01-30T07:03:21;12.98;;;11.68;;
25917;SDS011;13899;51.174;4.456;2024-01-30T07:05:47;19.75;;;17.92;;
25917;SDS011;13899;51.174;4.456;2024-01-30T07:08:15;14.95;;;12.57;;
25917;SDS011;13899;51.174;4.456;2024-01-30T07:10:42;13.30;;;11.32;;
25917;SDS011;13899;51.174;4.456;2024-01-30T07:13:08;14.88;;;11.55;;
25917;SDS011;13899;51.174;4.456;2024-01-30T07:15:35;14.00;;;12.50;;
25917;SDS011;13899;51.174;4.456;2024-01-30T07:18:01;13.77;;;12.43;;
25917;SDS011;13899;51.174;4.456;2024-01-30T07:20:27;14.30;;;12.90;;
25917;SDS011;13899;51.174;4.456;2024-01-30T07:22:55;12.93;;;11.57;;
25917;SDS011;13899;51.174;4.456;2024-01-30T07:25:21;12.90;;;11.47;;
25917;SDS011;13899;51.174;4.456;2024-01-30T07:27:51;16.70;;;10.10;;
25917;SDS011;13899;51.174;4.456;2024-01-30T07:30:19;13.82;;;12.13;;
25917;SDS011;13899;51.174;4.456;2024-01-30T07:32:46;14.33;;;12.43;;
25917;SDS011;13899;51.174;4.456;2024-01-30T07:35:12;11.50;;;8.05;;
25917;SDS011;13899;51.174;4.456;2024-01-30T07:37:38;11.93;;;7.90;;
25917;SDS011;13899;51.174;4.456;2024-01-30T07:40:04;10.87;;;8.43;;
25917;SDS011;13899;51.174;4.456;2024-01-30T07:42:31;11.93;;;8.23;;
25917;SDS011;13899;51.174;4.456;2024-01-30T07:44:57;12.17;;;8.67;;
25917;SDS011;13899;51.174;4.456;2024-01-30T07:47:23;15.23;;;8.63;;
25917;SDS011;13899;51.174;4.456;2024-01-30T07:49:48;11.00;;;8.13;;
25917;SDS011;13899;51.174;4.456;2024-01-30T07:52:14;10.45;;;8.38;;
25917;SDS011;13899;51.174;4.456;2024-01-30T07:54:40;11.20;;;8.17;;
25917;SDS011;13899;51.174;4.456;2024-01-30T07:57:05;19.13;;;8.07;;
25917;SDS011;13899;51.174;4.456;2024-01-30T07:59:31;12.30;;;8.67;;
25917;SDS011;13899;51.174;4.456;2024-01-30T08:01:56;16.15;;;14.55;;
25917;SDS011;13899;51.174;4.456;2024-01-30T08:04:22;14.77;;;11.90;;
25917;SDS011;13899;51.174;4.456;2024-01-30T08:06:48;13.90;;;12.37;;
25917;SDS011;13899;51.174;4.456;2024-01-30T08:09:14;14.68;;;13.35;;
25917;SDS011;13899;51.174;4.456;2024-01-30T08:11:39;16.10;;;13.40;;
25917;SDS011;13899;51.174;4.456;2024-01-30T08:14:05;14.02;;;12.60;;
25917;SDS011;13899;51.174;4.456;2024-01-30T08:16:31;14.73;;;12.45;;
25917;SDS011;13899;51.174;4.456;2024-01-30T08:18:56;17.90;;;12.70;;
25917;SDS011;13899;51.174;4.456;2024-01-30T08:21:22;12.82;;;11.68;;
25917;SDS011;13899;51.174;4.456;2024-01-30T08:23:48;14.18;;;12.60;;
25917;SDS011;13899;51.174;4.456;2024-01-30T08:26:14;14.40;;;12.90;;
25917;SDS011;13899;51.174;4.456;2024-01-30T08:28:39;13.47;;;12.30;;
25917;SDS011;13899;51.174;4.456;2024-01-30T08:31:05;14.90;;;13.53;;
25917;SDS011;13899;51.174;4.456;2024-01-30T08:33:30;17.05;;;13.95;;
25917;SDS011;13899;51.174;4.456;2024-01-30T08:35:56;14.80;;;13.40;;
25917;SDS011;13899;51.174;4.456;2024-01-30T08:38:22;14.90;;;13.87;;
25917;SDS011;13899;51.174;4.456;2024-01-30T08:40:48;18.48;;;14.65;;
25917;SDS011;13899;51.174;4.456;2024-01-30T08:43:13;14.65;;;13.55;;
25917;SDS011;13899;51.174;4.456;2024-01-30T08:45:40;14.43;;;12.88;;
25917;SDS011;13899;51.174;4.456;2024-01-30T08:48:06;14.60;;;12.85;;
25917;SDS011;13899;51.174;4.456;2024-01-30T08:50:32;13.20;;;12.07;;
25917;SDS011;13899;51.174;4.456;2024-01-30T08:52:58;15.63;;;14.47;;
25917;SDS011;13899;51.174;4.456;2024-01-30T08:55:24;18.98;;;17.45;;
25917;SDS011;13899;51.174;4.456;2024-01-30T08:57:49;16.90;;;15.20;;
25917;SDS011;13899;51.174;4.456;2024-01-30T09:00:17;16.50;;;15.10;;
25917;SDS011;13899;51.174;4.456;2024-01-30T09:02:44;15.97;;;14.70;;
25917;SDS011;13899;51.174;4.456;2024-01-30T09:05:09;15.20;;;13.98;;
25917;SDS011;13899;51.174;4.456;2024-01-30T09:07:35;15.50;;;14.40;;
25917;SDS011;13899;51.174;4.456;2024-01-30T09:10:01;15.87;;;14.53;;
25917;SDS011;13899;51.174;4.456;2024-01-30T09:12:26;16.47;;;15.03;;
25917;SDS011;13899;51.174;4.456;2024-01-30T09:14:52;21.40;;;19.60;;
25917;SDS011;13899;51.174;4.456;2024-01-30T09:17:18;22.33;;;20.30;;
25917;SDS011;13899;51.174;4.456;2024-01-30T09:19:43;14.60;;;13.03;;
25917;SDS011;13899;51.174;4.456;2024-01-30T09:22:10;17.70;;;13.98;;
25917;SDS011;13899;51.174;4.456;2024-01-30T09:24:35;18.00;;;16.60;;
25917;SDS011;13899;51.174;4.456;2024-01-30T09:27:01;20.75;;;18.85;;
25917;SDS011;13899;51.174;4.456;2024-01-30T09:29:27;20.50;;;18.73;;
25917;SDS011;13899;51.174;4.456;2024-01-30T09:31:53;17.65;;;15.95;;
25917;SDS011;13899;51.174;4.456;2024-01-30T09:34:19;16.17;;;14.65;;
25917;SDS011;13899;51.174;4.456;2024-01-30T09:36:45;17.07;;;15.50;;
25917;SDS011;13899;51.174;4.456;2024-01-30T09:39:11;17.17;;;15.55;;
25917;SDS011;13899;51.174;4.456;2024-01-30T09:41:47;20.17;;;15.83;;
25917;SDS011;13899;51.174;4.456;2024-01-30T09:44:18;17.73;;;16.00;;
25917;SDS011;13899;51.174;4.456;2024-01-30T09:46:46;19.58;;;17.70;;
25917;SDS011;13899;51.174;4.456;2024-01-30T09:49:13;18.65;;;16.90;;
25917;SDS011;13899;51.174;4.456;2024-01-30T09:51:39;19.73;;;17.97;;
25917;SDS011;13899;51.174;4.456;2024-01-30T09:54:06;16.77;;;15.05;;
25917;SDS011;13899;51.174;4.456;2024-01-30T09:56:33;21.27;;;19.63;;
25917;SDS011;13899;51.174;4.456;2024-01-30T09:58:59;21.03;;;19.20;;
25917;SDS011;13899;51.174;4.456;2024-01-30T10:01:24;19.25;;;17.63;;
25917;SDS011;13899;51.174;4.456;2024-01-30T10:03:51;18.27;;;16.67;;
25917;SDS011;13899;51.174;4.456;2024-01-30T10:06:19;18.23;;;16.73;;
25917;SDS011;13899;51.174;4.456;2024-01-30T10:08:46;19.60;;;17.73;;
25917;SDS011;13899;51.174;4.456;2024-01-30T10:11:11;25.33;;;17.00;;
25917;SDS011;13899;51.174;4.456;2024-01-30T10:13:38;19.88;;;17.70;;
25917;SDS011;13899;51.174;4.456;2024-01-30T10:16:04;20.38;;;17.65;;
25917;SDS011;13899;51.174;4.456;2024-01-30T10:18:31;20.73;;;18.73;;
25917;SDS011;13899;51.174;4.456;2024-01-30T10:20:58;24.83;;;22.33;;
25917;SDS011;13899;51.174;4.456;2024-01-30T10:25:50;23.37;;;21.33;;
25917;SDS011;13899;51.174;4.456;2024-01-30T10:28:17;20.17;;;18.75;;
25917;SDS011;13899;51.174;4.456;2024-01-30T10:30:43;22.37;;;20.50;;
25917;SDS011;13899;51.174;4.456;2024-01-30T10:33:08;20.00;;;18.00;;
25917;SDS011;13899;51.174;4.456;2024-01-30T10:35:34;17.90;;;16.37;;
25917;SDS011;13899;51.174;4.456;2024-01-30T10:38:00;17.50;;;15.93;;
25917;SDS011;13899;51.174;4.456;2024-01-30T10:40:29;17.48;;;15.82;;
25917;SDS011;13899;51.174;4.456;2024-01-30T10:42:55;15.68;;;14.18;;
25917;SDS011;13899;51.174;4.456;2024-01-30T10:45:24;11.97;;;10.87;;
25917;SDS011;13899;51.174;4.456;2024-01-30T10:47:54;5.65;;;5.13;;
25917;SDS011;13899;51.174;4.456;2024-01-30T10:50:24;6.18;;;2.55;;
25917;SDS011;13899;51.174;4.456;2024-01-30T10:55:16;3.65;;;1.48;;
25917;SDS011;13899;51.174;4.456;2024-01-30T10:57:43;4.72;;;1.33;;
25917;SDS011;13899;51.174;4.456;2024-01-30T11:00:10;2.57;;;1.10;;
25917;SDS011;13899;51.174;4.456;2024-01-30T11:02:41;3.88;;;1.38;;
25917;SDS011;13899;51.174;4.456;2024-01-30T11:05:09;4.90;;;4.45;;
25917;SDS011;13899;51.174;4.456;2024-01-30T11:07:35;5.40;;;1.30;;
25917;SDS011;13899;51.174;4.456;2024-01-30T11:10:04;2.90;;;1.70;;
25917;SDS011;13899;51.174;4.456;2024-01-30T11:12:31;1.77;;;0.70;;
25917;SDS011;13899;51.174;4.456;2024-01-30T11:15:02;4.72;;;1.17;;
25917;SDS011;13899;51.174;4.456;2024-01-30T11:17:39;2.80;;;0.90;;
25917;SDS011;13899;51.174;4.456;2024-01-30T11:20:13;3.03;;;1.00;;
25917;SDS011;13899;51.174;4.456;2024-01-30T11:22:40;1.52;;;0.60;;
25917;SDS011;13899;51.174;4.456;2024-01-30T11:25:16;4.83;;;4.37;;
25917;SDS011;13899;51.174;4.456;2024-01-30T11:27:43;3.53;;;3.10;;
25917;SDS011;13899;51.174;4.456;2024-01-30T11:30:10;6.40;;;6.10;;
25917;SDS011;13899;51.174;4.456;2024-01-30T11:32:35;2.13;;;1.20;;
25917;SDS011;13899;51.174;4.456;2024-01-30T11:35:05;2.37;;;0.73;;
25917;SDS011;13899;51.174;4.456;2024-01-30T11:37:31;2.45;;;0.90;;
25917;SDS011;13899;51.174;4.456;2024-01-30T11:39:57;5.57;;;5.17;;
25917;SDS011;13899;51.174;4.456;2024-01-30T11:42:24;9.38;;;8.77;;
25917;SDS011;13899;51.174;4.456;2024-01-30T11:44:52;5.60;;;5.07;;
25917;SDS011;13899;51.174;4.456;2024-01-30T11:47:18;4.87;;;4.50;;
25917;SDS011;13899;51.174;4.456;2024-01-30T11:49:43;7.35;;;6.57;;
25917;SDS011;13899;51.174;4.456;2024-01-30T11:52:09;4.30;;;4.03;;
25917;SDS011;13899;51.174;4.456;2024-01-30T11:54:36;6.65;;;6.22;;
25917;SDS011;13899;51.174;4.456;2024-01-30T11:57:05;3.92;;;1.02;;
25917;SDS011;13899;51.174;4.456;2024-01-30T11:59:30;4.73;;;0.80;;
25917;SDS011;13899;51.174;4.456;2024-01-30T12:01:56;6.83;;;2.20;;
25917;SDS011;13899;51.174;4.456;2024-01-30T12:04:21;1.55;;;0.47;;
25917;SDS011;13899;51.174;4.456;2024-01-30T12:06:50;3.25;;;0.80;;
25917;SDS011;13899;51.174;4.456;2024-01-30T12:09:16;2.90;;;0.82;;
25917;SDS011;13899;51.174;4.456;2024-01-30T12:11:46;3.67;;;3.37;;
25917;SDS011;13899;51.174;4.456;2024-01-30T12:14:12;8.23;;;5.38;;
25917;SDS011;13899;51.174;4.456;2024-01-30T12:16:40;2.05;;;0.65;;
25917;SDS011;13899;51.174;4.456;2024-01-30T12:19:09;2.47;;;1.63;;
25917;SDS011;13899;51.174;4.456;2024-01-30T12:21:34;6.37;;;5.80;;
25917;SDS011;13899;51.174;4.456;2024-01-30T12:24:01;5.18;;;4.78;;
25917;SDS011;13899;51.174;4.456;2024-01-30T12:26:26;7.30;;;6.80;;
25917;SDS011;13899;51.174;4.456;2024-01-30T12:28:55;6.90;;;6.50;;
25917;SDS011;13899;51.174;4.456;2024-01-30T12:31:27;2.53;;;1.27;;
25917;SDS011;13899;51.174;4.456;2024-01-30T12:33:54;1.67;;;1.38;;
25917;SDS011;13899;51.174;4.456;2024-01-30T12:36:20;2.05;;;0.77;;
25917;SDS011;13899;51.174;4.456;2024-01-30T12:38:47;3.70;;;1.10;;
25917;SDS011;13899;51.174;4.456;2024-01-30T12:41:12;6.60;;;6.20;;
25917;SDS011;13899;51.174;4.456;2024-01-30T12:43:38;5.13;;;4.80;;
25917;SDS011;13899;51.174;4.456;2024-01-30T12:46:04;6.30;;;5.70;;
25917;SDS011;13899;51.174;4.456;2024-01-30T12:48:30;7.88;;;7.38;;
25917;SDS011;13899;51.174;4.456;2024-01-30T12:50:56;1.00;;;0.60;;
25917;SDS011;13899;51.174;4.456;2024-01-30T12:53:22;8.10;;;7.60;;
25917;SDS011;13899;51.174;4.456;2024-01-30T12:55:47;10.13;;;9.43;;
25917;SDS011;13899;51.174;4.456;2024-01-30T12:58:15;3.53;;;1.00;;
25917;SDS011;13899;51.174;4.456;2024-01-30T13:00:41;7.03;;;6.47;;
25917;SDS011;13899;51.174;4.456;2024-01-30T13:03:08;4.55;;;2.72;;
25917;SDS011;13899;51.174;4.456;2024-01-30T13:05:35;3.67;;;3.35;;
25917;SDS011;13899;51.174;4.456;2024-01-30T13:08:00;6.73;;;4.57;;
25917;SDS011;13899;51.174;4.456;2024-01-30T13:10:26;4.13;;;3.72;;
25917;SDS011;13899;51.174;4.456;2024-01-30T13:12:52;6.00;;;3.43;;
25917;SDS011;13899;51.174;4.456;2024-01-30T13:15:18;5.80;;;5.32;;
25917;SDS011;13899;51.174;4.456;2024-01-30T13:17:44;2.58;;;0.93;;
25917;SDS011;13899;51.174;4.456;2024-01-30T13:20:12;5.07;;;1.20;;
25917;SDS011;13899;51.174;4.456;2024-01-30T13:22:41;6.93;;;6.47;;
25917;SDS011;13899;51.174;4.456;2024-01-30T13:25:08;6.80;;;6.30;;
25917;SDS011;13899;51.174;4.456;2024-01-30T13:27:33;7.20;;;4.50;;
25917;SDS011;13899;51.174;4.456;2024-01-30T13:29:59;2.60;;;1.80;;
25917;SDS011;13899;51.174;4.456;2024-01-30T13:32:25;5.10;;;4.80;;
25917;SDS011;13899;51.174;4.456;2024-01-30T13:34:51;4.47;;;4.03;;
25917;SDS011;13899;51.174;4.456;2024-01-30T13:37:16;4.90;;;4.50;;
25917;SDS011;13899;51.174;4.456;2024-01-30T13:39:42;4.75;;;4.35;;
25917;SDS011;13899;51.174;4.456;2024-01-30T13:42:08;2.28;;;1.00;;
25917;SDS011;13899;51.174;4.456;2024-01-30T13:44:35;4.60;;;1.13;;
25917;SDS011;13899;51.174;4.456;2024-01-30T13:47:00;5.05;;;1.10;;
25917;SDS011;13899;51.174;4.456;2024-01-30T13:49:27;3.70;;;1.10;;
25917;SDS011;13899;51.174;4.456;2024-01-30T13:51:52;4.27;;;1.37;;
25917;SDS011;13899;51.174;4.456;2024-01-30T13:54:18;9.15;;;1.45;;
25917;SDS011;13899;51.174;4.456;2024-01-30T13:56:44;3.60;;;1.30;;
25917;SDS011;13899;51.174;4.456;2024-01-30T13:59:09;4.43;;;1.70;;
25917;SDS011;13899;51.174;4.456;2024-01-30T14:01:35;4.03;;;0.75;;
25917;SDS011;13899;51.174;4.456;2024-01-30T14:04:00;7.18;;;1.58;;
25917;SDS011;13899;51.174;4.456;2024-01-30T14:06:26;2.87;;;0.87;;
25917;SDS011;13899;51.174;4.456;2024-01-30T14:08:52;3.05;;;1.20;;
25917;SDS011;13899;51.174;4.456;2024-01-30T14:11:18;3.95;;;1.42;;
25917;SDS011;13899;51.174;4.456;2024-01-30T14:13:44;8.98;;;5.40;;
25917;SDS011;13899;51.174;4.456;2024-01-30T14:16:10;4.23;;;3.90;;
25917;SDS011;13899;51.174;4.456;2024-01-30T14:18:35;5.23;;;4.67;;
25917;SDS011;13899;51.174;4.456;2024-01-30T14:21:01;5.03;;;4.55;;
25917;SDS011;13899;51.174;4.456;2024-01-30T14:23:27;4.47;;;4.18;;
25917;SDS011;13899;51.174;4.456;2024-01-30T14:25:53;5.07;;;4.60;;
25917;SDS011;13899;51.174;4.456;2024-01-30T14:28:18;4.50;;;3.93;;
25917;SDS011;13899;51.174;4.456;2024-01-30T14:30:44;4.85;;;3.67;;
25917;SDS011;13899;51.174;4.456;2024-01-30T14:33:10;6.73;;;4.87;;
25917;SDS011;13899;51.174;4.456;2024-01-30T14:35:35;8.90;;;8.33;;
25917;SDS011;13899;51.174;4.456;2024-01-30T14:38:01;9.05;;;5.85;;
25917;SDS011;13899;51.174;4.456;2024-01-30T14:40:29;6.25;;;5.75;;